Time;durP1;ratioP1;P1;durP2;ratioP2;P2;SDS_P1;SDS_P2;PMS_P1;PMS_P2;Temp;Humidity;BMP_temperature;BMP_pressure;BME280_temperature;BME280_humidity;BME280_pressure;Samples;Min_cycle;Max_cycle;Signal;HPM_P1;HPM_P2
2023/01/17 00:02:18;;;;;;;1.65;0.60;;;2.20;99.90;;;;;;4955696;29;20110;-74
2023/01/17 00:10:19;;;;;;;3.72;0.65;;;2.10;99.90;;;;;;4966928;29;20023;-76
2023/01/17 00:12:47;;;;;;;1.95;0.80;;;2.10;99.90;;;;;;4965162;28;20075;-75
2023/01/17 00:15:13;;;;;;;2.22;0.90;;;2.10;99.90;;;;;;4965820;28;20023;-75
2023/01/17 00:17:38;;;;;;;1.90;0.75;;;2.10;99.90;;;;;;4963723;29;20054;-75
2023/01/17 06:03:25;;;;;;;2.45;0.60;;;1.80;99.90;;;;;;5005029;23;20245;-77
2023/01/17 06:05:51;;;;;;;3.15;1.20;;;1.80;99.90;;;;;;4924868;29;20225;-76
2023/01/17 06:08:17;;;;;;;2.70;0.90;;;1.70;99.90;;;;;;4925153;29;20035;-78
2023/01/17 06:10:42;;;;;;;5.20;1.00;;;1.60;99.90;;;;;;4925500;29;20059;-77
2023/01/17 06:13:14;;;;;;;4.95;1.27;;;1.60;99.90;;;;;;4924776;29;20047;-75
2023/01/17 06:15:40;;;;;;;2.47;1.00;;;1.50;99.90;;;;;;4925217;29;20040;-76
2023/01/17 06:18:11;;;;;;;3.78;1.35;;;1.40;99.90;;;;;;4925105;29;20032;-77
2023/01/17 06:20:38;;;;;;;3.47;1.10;;;1.20;99.90;;;;;;4927498;29;20206;-77
2023/01/17 06:23:06;;;;;;;5.28;1.30;;;1.00;99.90;;;;;;4927006;29;20216;-77
2023/01/17 06:25:40;;;;;;;6.40;1.00;;;0.90;99.90;;;;;;4928601;29;20036;-77
2023/01/17 06:28:06;;;;;;;3.03;1.38;;;0.80;99.90;;;;;;4928135;29;20190;-77
2023/01/17 06:30:33;;;;;;;2.50;1.02;;;0.80;99.90;;;;;;4928363;29;20036;-78
2023/01/17 06:32:58;;;;;;;4.65;3.33;;;0.70;99.90;;;;;;4928644;29;20087;-77
2023/01/17 06:35:24;;;;;;;4.82;2.92;;;0.70;99.90;;;;;;4928276;29;20036;-75
2023/01/17 06:37:51;;;;;;;4.40;1.98;;;0.70;99.90;;;;;;4928598;29;20206;-75
2023/01/17 06:40:18;;;;;;;5.28;2.13;;;0.60;99.90;;;;;;4927789;29;20036;-77
2023/01/17 06:42:44;;;;;;;5.03;1.92;;;0.50;99.90;;;;;;4927902;29;20322;-77
2023/01/17 06:45:10;;;;;;;4.25;1.70;;;0.50;99.90;;;;;;4927954;29;20020;-78
2023/01/17 06:47:39;;;;;;;3.05;1.20;;;0.40;99.90;;;;;;4927466;29;20032;-77
2023/01/17 06:50:07;;;;;;;5.20;1.50;;;0.50;99.90;;;;;;4927673;29;20321;-78
2023/01/17 06:52:33;;;;;;;4.15;2.17;;;0.60;99.90;;;;;;4926720;29;20058;-77
2023/01/17 06:54:59;;;;;;;3.88;1.95;;;0.60;99.90;;;;;;4927950;29;20028;-78
2023/01/17 06:57:25;;;;;;;3.97;2.10;;;0.60;99.90;;;;;;4926207;29;20369;-78
2023/01/17 06:59:50;;;;;;;3.38;1.65;;;0.50;99.90;;;;;;4928116;29;20185;-77
2023/01/17 07:02:16;;;;;;;6.40;1.88;;;0.50;99.90;;;;;;4931191;29;20048;-76
2023/01/17 07:04:42;;;;;;;5.00;2.00;;;0.40;99.90;;;;;;4928110;29;20048;-77
2023/01/17 07:07:08;;;;;;;8.90;1.90;;;0.40;99.90;;;;;;4926687;29;20362;-76
2023/01/17 07:09:33;;;;;;;5.32;1.55;;;0.50;99.90;;;;;;4923719;29;20290;-77
2023/01/17 07:12:00;;;;;;;6.00;2.05;;;0.60;99.90;;;;;;4907960;29;20036;-76
2023/01/17 07:14:27;;;;;;;5.70;2.33;;;0.70;99.90;;;;;;4908157;29;20241;-77
2023/01/17 07:17:02;;;;;;;7.63;2.83;;;0.70;99.90;;;;;;4907840;29;20036;-77
2023/01/17 07:19:28;;;;;;;4.60;1.40;;;0.70;99.90;;;;;;4919471;29;20044;-78
2023/01/17 07:21:54;;;;;;;3.85;1.70;;;0.80;99.90;;;;;;4927433;29;20075;-77
2023/01/17 07:24:20;;;;;;;5.95;1.83;;;0.90;99.90;;;;;;4942090;29;20198;-76
2023/01/17 07:26:52;;;;;;;4.03;1.77;;;0.90;99.90;;;;;;4942459;29;20040;-76
2023/01/17 07:29:18;;;;;;;4.72;1.67;;;1.10;99.90;;;;;;4927543;29;20310;-76
2023/01/17 07:31:44;;;;;;;3.72;1.92;;;1.10;99.90;;;;;;4926493;29;20088;-76
2023/01/17 07:34:10;;;;;;;4.97;1.65;;;1.10;99.90;;;;;;4926345;29;20032;-77
2023/01/17 07:36:36;;;;;;;6.25;2.40;;;1.20;99.90;;;;;;4931323;29;20043;-77
2023/01/17 07:39:03;;;;;;;3.97;1.90;;;1.20;99.90;;;;;;4925120;29;20047;-76
2023/01/17 07:41:31;;;;;;;4.18;1.77;;;1.20;99.90;;;;;;4925007;29;20052;-76
2023/01/17 07:44:03;;;;;;;4.93;2.00;;;1.20;99.90;;;;;;4909613;29;20044;-77
2023/01/17 07:46:29;;;;;;;4.93;2.03;;;1.20;99.90;;;;;;4924873;29;20040;-76
2023/01/17 07:48:55;;;;;;;5.45;2.08;;;1.20;99.90;;;;;;4909367;29;20452;-78
2023/01/17 07:51:20;;;;;;;7.53;2.55;;;1.10;99.90;;;;;;4924629;29;20051;-77
2023/01/17 07:53:46;;;;;;;4.32;2.40;;;1.10;99.90;;;;;;4925329;29;20107;-78
2023/01/17 07:56:12;;;;;;;6.10;2.58;;;1.10;99.90;;;;;;4924331;29;20313;-79
2023/01/17 07:58:38;;;;;;;9.30;3.03;;;1.10;99.90;;;;;;4921609;29;20045;-77
2023/01/17 08:01:06;;;;;;;5.70;2.13;;;1.10;99.90;;;;;;4906138;29;20063;-77
2023/01/17 08:03:35;;;;;;;;;;;1.10;99.90;;;;;;4905961;29;20072;-77
2023/01/17 08:06:01;;;;;;;5.75;2.22;;;1.20;99.90;;;;;;4908516;29;19915;-76
2023/01/17 08:08:28;;;;;;;4.78;2.50;;;1.20;99.90;;;;;;4940904;29;20385;-78
2023/01/17 08:10:54;;;;;;;8.48;2.30;;;1.30;99.90;;;;;;4915989;29;20055;-76
2023/01/17 08:13:21;;;;;;;4.22;2.33;;;1.30;99.90;;;;;;4906207;29;20104;-78
2023/01/17 08:15:50;;;;;;;4.50;2.20;;;1.40;99.90;;;;;;4904411;29;20242;-78
2023/01/17 08:18:16;;;;;;;3.83;2.00;;;1.40;99.90;;;;;;4925251;29;20027;-78
2023/01/17 08:20:45;;;;;;;5.43;2.30;;;1.60;99.90;;;;;;4925308;29;20035;-77
2023/01/17 08:23:11;;;;;;;3.33;1.67;;;1.70;99.90;;;;;;4925738;29;20083;-75
2023/01/17 08:25:38;;;;;;;7.85;2.28;;;1.80;99.90;;;;;;4957343;29;20070;-78
2023/01/17 08:28:03;;;;;;;5.63;2.10;;;1.90;99.90;;;;;;4909719;29;20298;-77
2023/01/17 08:30:33;;;;;;;3.78;1.88;;;2.10;99.90;;;;;;4926179;29;20219;-82
2023/01/17 08:32:59;;;;;;;4.22;2.33;;;2.20;99.90;;;;;;4927100;29;20067;-74
2023/01/17 08:35:26;;;;;;;7.03;2.58;;;2.30;99.90;;;;;;4926767;29;20036;-76
2023/01/17 08:37:54;;;;;;;7.00;2.65;;;2.50;99.90;;;;;;4956349;29;20107;-76
2023/01/17 08:40:21;;;;;;;4.78;2.17;;;2.50;99.90;;;;;;4924199;29;20066;-78
2023/01/17 08:42:58;;;;;;;6.35;2.67;;;2.70;99.90;;;;;;4925882;29;20426;-77
2023/01/17 08:45:40;;;;;;;;;;;;;;;;;;;;;
2023/01/17 08:48:34;;;;;;;5.07;1.90;;;2.90;99.90;;;;;;4925347;29;20308;-77
2023/01/17 08:51:03;;;;;;;4.95;2.10;;;3.00;99.90;;;;;;4924705;29;20036;-77
2023/01/17 08:53:29;;;;;;;4.18;1.95;;;3.10;99.90;;;;;;4925287;29;20229;-76
2023/01/17 08:56:00;;;;;;;4.15;2.08;;;3.30;99.90;;;;;;4926110;29;20051;-79
2023/01/17 08:58:30;;;;;;;3.88;1.70;;;3.40;99.90;;;;;;4920985;29;20100;-77
2023/01/17 09:01:01;;;;;;;3.25;1.40;;;3.40;99.90;;;;;;4906093;29;20068;-78
2023/01/17 09:03:35;;;;;;;3.30;0.95;;;3.40;99.90;;;;;;4920753;29;20051;-76
2023/01/17 09:06:09;;;;;;;3.17;1.10;;;3.50;99.90;;;;;;4931833;29;20090;-78
2023/01/17 09:08:39;;;;;;;4.13;1.00;;;3.50;99.90;;;;;;4905006;29;20040;-76
2023/01/17 09:11:27;;;;;;;3.67;1.15;;;3.50;99.90;;;;;;4907265;29;20071;-75
2023/01/17 09:13:56;;;;;;;4.85;1.60;;;3.60;99.90;;;;;;4905894;29;20196;-75
2023/01/17 09:16:28;;;;;;;7.05;2.17;;;3.60;99.90;;;;;;4924190;29;20032;-77
2023/01/17 09:19:01;;;;;;;5.95;2.10;;;3.70;99.90;;;;;;4924687;29;20051;-78
2023/01/17 09:21:27;;;;;;;6.40;1.90;;;3.70;99.90;;;;;;4925487;29;20028;-78
2023/01/17 09:23:56;;;;;;;7.55;2.33;;;3.70;99.90;;;;;;4925619;29;20060;-75
2023/01/17 09:26:29;;;;;;;6.13;2.90;;;3.80;99.90;;;;;;4923786;29;20032;-76
2023/01/17 09:29:01;;;;;;;7.38;2.70;;;3.80;99.90;;;;;;4925530;29;20036;-76
2023/01/17 09:31:35;;;;;;;5.70;2.50;;;3.80;99.90;;;;;;4924039;29;20056;-76
2023/01/17 09:34:01;;;;;;;6.00;2.50;;;3.80;99.90;;;;;;4925299;29;20039;-78
2023/01/17 09:36:51;;;;;;;5.90;2.33;;;3.80;99.90;;;;;;4924938;29;20020;-76
2023/01/17 09:39:23;;;;;;;7.68;2.65;;;3.70;99.90;;;;;;4906688;29;20163;-76
2023/01/17 09:42:25;;;;;;;11.40;3.28;;;3.70;99.90;;;;;;4925233;29;20103;-76
2023/01/17 09:44:51;;;;;;;7.55;3.05;;;3.70;99.90;;;;;;4925375;29;20036;-78
2023/01/17 09:47:20;;;;;;;7.32;2.85;;;3.70;99.90;;;;;;4925243;29;20189;-76
2023/01/17 09:49:46;;;;;;;;;;;3.70;99.90;;;;;;4925870;29;20043;-77
2023/01/17 09:52:18;;;;;;;6.47;2.60;;;3.70;99.90;;;;;;4908641;29;19974;-78
2023/01/17 09:54:48;;;;;;;8.63;3.13;;;3.70;99.90;;;;;;4928038;29;20043;-78
2023/01/17 09:57:24;;;;;;;5.65;2.67;;;3.70;99.90;;;;;;4925350;29;20052;-77
2023/01/17 10:00:24;;;;;;;7.90;2.50;;;3.80;99.90;;;;;;4910218;29;20063;-77
2023/01/17 10:03:19;;;;;;;4.32;2.20;;;3.90;99.90;;;;;;4922069;29;20040;-77
2023/01/17 10:05:52;;;;;;;5.15;2.05;;;4.00;99.90;;;;;;4909973;29;20048;-77
2023/01/17 10:08:18;;;;;;;5.53;2.60;;;4.00;99.90;;;;;;4909411;29;20043;-77
2023/01/17 10:11:28;;;;;;;7.32;2.30;;;4.10;99.90;;;;;;4922442;29;20036;-76
2023/01/17 10:14:04;;;;;;;5.78;1.92;;;4.20;99.90;;;;;;4927633;29;20322;-77
2023/01/17 10:16:48;;;;;;;7.50;2.28;;;4.20;99.90;;;;;;4911858;29;20052;-79
2023/01/17 10:19:45;;;;;;;7.15;2.13;;;4.30;99.90;;;;;;4927642;29;20036;-76
2023/01/17 10:22:29;;;;;;;5.40;1.80;;;4.50;99.90;;;;;;4928442;29;20038;-76
2023/01/17 10:25:14;;;;;;;5.57;2.08;;;4.50;99.90;;;;;;4927440;29;20063;-77
2023/01/17 10:28:02;;;;;;;5.13;1.80;;;4.60;99.90;;;;;;4928057;29;20329;-77
2023/01/17 10:30:30;;;;;;;5.43;2.13;;;4.70;99.90;;;;;;4926816;29;20028;-76
2023/01/17 10:33:00;;;;;;;4.05;1.60;;;4.70;99.90;;;;;;4927229;29;20478;-77
2023/01/17 10:35:32;;;;;;;3.15;1.60;;;4.80;99.90;;;;;;4926943;29;20239;-77
2023/01/17 10:38:02;;;;;;;2.90;1.13;;;4.90;99.90;;;;;;4928394;29;20044;-76
2023/01/17 10:40:43;;;;;;;3.20;1.42;;;5.00;99.90;;;;;;4928120;29;20146;-77
2023/01/17 10:43:21;;;;;;;5.25;1.98;;;5.00;99.90;;;;;;4928329;29;20039;-77
2023/01/17 10:45:56;;;;;;;6.90;2.25;;;5.20;99.90;;;;;;4928265;29;20397;-77
2023/01/17 10:48:45;;;;;;;6.80;1.90;;;5.40;99.90;;;;;;4927705;29;20036;-76
2023/01/17 10:51:24;;;;;;;5.63;1.90;;;5.70;99.90;;;;;;4911221;29;20035;-76
2023/01/17 10:54:10;;;;;;;7.45;2.10;;;5.80;99.90;;;;;;4928000;29;20052;-76
2023/01/17 10:56:42;;;;;;;6.13;2.22;;;6.00;99.90;;;;;;4927493;29;20135;-77
2023/01/17 10:59:24;;;;;;;5.90;2.25;;;6.50;99.90;;;;;;4923987;29;20319;-77
2023/01/17 11:01:50;;;;;;;3.70;1.20;;;6.70;99.90;;;;;;4923135;29;20108;-78
2023/01/17 11:04:29;;;;;;;3.03;1.50;;;6.90;98.60;;;;;;4923337;29;20043;-78
2023/01/17 11:07:16;;;;;;;3.67;1.27;;;7.10;98.00;;;;;;4917514;29;20444;-77
2023/01/17 11:09:48;;;;;;;3.03;0.85;;;7.60;97.10;;;;;;4924476;29;20156;-76
2023/01/17 11:12:50;;;;;;;3.15;1.00;;;7.70;94.00;;;;;;4926610;29;20060;-78
2023/01/17 11:15:24;;;;;;;3.45;0.80;;;8.10;93.60;;;;;;4916129;29;20084;-76
2023/01/17 11:18:04;;;;;;;2.10;0.70;;;8.60;92.70;;;;;;4907105;29;20036;-77
2023/01/17 11:20:38;;;;;;;5.05;0.93;;;8.80;92.00;;;;;;4906897;29;20343;-75
2023/01/17 11:23:15;;;;;;;3.50;0.90;;;9.30;90.60;;;;;;4908517;29;20048;-74
2023/01/17 11:25:56;;;;;;;1.67;0.60;;;9.70;89.60;;;;;;4907046;29;20099;-75
2023/01/17 11:28:29;;;;;;;2.53;1.02;;;9.90;86.50;;;;;;4907889;29;20048;-77
2023/01/17 11:31:06;;;;;;;5.22;1.48;;;10.30;84.40;;;;;;4907188;29;20029;-75
2023/01/17 11:33:54;;;;;;;3.77;0.70;;;10.60;85.00;;;;;;4907828;29;20055;-76
2023/01/17 11:36:29;;;;;;;3.47;0.70;;;11.20;81.60;;;;;;4907614;29;20504;-76
2023/01/17 11:39:21;;;;;;;2.95;0.70;;;12.10;80.80;;;;;;4908270;29;20307;-77
2023/01/17 11:41:47;;;;;;;2.20;0.38;;;12.60;75.30;;;;;;4917016;29;20324;-77
2023/01/17 11:44:25;;;;;;;2.05;0.70;;;12.50;73.70;;;;;;4928045;29;20046;-75
2023/01/17 11:47:09;;;;;;;2.80;0.68;;;12.70;73.50;;;;;;4927543;29;20084;-75
2023/01/17 11:49:35;;;;;;;2.53;0.43;;;13.00;72.20;;;;;;4925485;29;20040;-76
2023/01/17 11:52:15;;;;;;;1.90;0.50;;;14.00;72.20;;;;;;4927721;29;20132;-76
2023/01/17 11:54:45;;;;;;;1.23;0.50;;;14.50;67.60;;;;;;4925666;29;20116;-75
2023/01/17 11:57:24;;;;;;;4.45;0.70;;;14.40;66.80;;;;;;4922530;29;20044;-76
2023/01/17 12:00:15;;;;;;;2.15;0.50;;;14.20;66.00;;;;;;4906666;29;20314;-76
2023/01/17 12:02:56;;;;;;;2.00;0.50;;;14.00;66.40;;;;;;4909353;29;20059;-76
2023/01/17 12:05:52;;;;;;;1.65;0.50;;;14.00;66.80;;;;;;4926002;29;20038;-75
2023/01/17 12:08:31;;;;;;;2.10;0.40;;;14.70;65.20;;;;;;4926921;29;20040;-76
2023/01/17 12:11:06;;;;;;;2.60;0.47;;;14.40;64.30;;;;;;4925153;29;20036;-76
2023/01/17 12:16:57;;;;;;;2.00;0.63;;;15.40;65.40;;;;;;4906679;29;20109;-75
2023/01/17 12:19:45;;;;;;;3.85;0.40;;;15.90;66.40;;;;;;4906839;29;20072;-76
2023/01/17 12:22:39;;;;;;;3.50;0.40;;;16.80;64.80;;;;;;4907191;29;20120;-77
2023/01/17 12:25:25;;;;;;;2.03;0.50;;;17.20;63.00;;;;;;4907104;29;20053;-77
2023/01/17 12:28:10;;;;;;;1.17;0.40;;;17.60;59.60;;;;;;4916141;29;20031;-77
2023/01/17 12:31:06;;;;;;;1.75;0.50;;;17.30;59.70;;;;;;4925618;29;20036;-76
2023/01/17 12:33:35;;;;;;;2.40;0.38;;;16.60;62.50;;;;;;4925393;29;20051;-76
2023/01/17 12:36:22;;;;;;;1.67;0.40;;;16.10;61.40;;;;;;4925719;29;20055;-76
2023/01/17 12:38:48;;;;;;;3.10;0.52;;;15.30;60.60;;;;;;4913303;29;20048;-76
2023/01/17 12:41:27;;;;;;;2.50;0.30;;;14.70;61.30;;;;;;4925401;29;20043;-76
2023/01/17 12:43:57;;;;;;;1.83;0.57;;;13.90;62.50;;;;;;4926096;29;20040;-77
2023/01/17 12:46:48;;;;;;;7.65;0.88;;;13.60;63.30;;;;;;4925946;29;20028;-76
2023/01/17 12:49:41;;;;;;;3.47;1.00;;;12.80;65.50;;;;;;4925801;29;20043;-77
2023/01/17 12:52:18;;;;;;;2.95;0.55;;;12.50;67.20;;;;;;4925571;29;20207;-78
2023/01/17 12:54:51;;;;;;;3.08;1.10;;;12.00;67.50;;;;;;4925196;29;20266;-78
2023/01/17 12:57:26;;;;;;;6.43;0.70;;;11.70;68.90;;;;;;4922317;29;20043;-80
2023/01/17 13:00:03;;;;;;;5.47;0.98;;;11.70;71.20;;;;;;4919325;29;20392;-78
2023/01/17 13:03:00;;;;;;;3.60;0.65;;;11.60;70.30;;;;;;4915120;29;20051;-77
2023/01/17 13:05:35;;;;;;;2.60;0.50;;;11.50;70.80;;;;;;4924819;29;20076;-78
2023/01/17 13:08:03;;;;;;;1.80;0.40;;;11.30;69.30;;;;;;4906031;29;20029;-78
2023/01/17 13:10:37;;;;;;;2.58;0.93;;;11.10;71.00;;;;;;4906991;29;20036;-79
2023/01/17 13:13:21;;;;;;;2.97;0.50;;;11.00;71.30;;;;;;4906692;29;20048;-78
2023/01/17 13:15:49;;;;;;;3.70;0.70;;;10.60;72.60;;;;;;4909104;29;20036;-79
2023/01/17 13:18:24;;;;;;;2.13;0.85;;;10.40;71.40;;;;;;4906094;29;20029;-77
2023/01/17 13:21:03;;;;;;;2.45;0.70;;;10.10;73.10;;;;;;4906870;29;20044;-79
2023/01/17 13:23:41;;;;;;;2.47;0.60;;;9.70;72.50;;;;;;4906356;29;20025;-79
2023/01/17 13:26:27;;;;;;;;;;;9.20;74.00;;;;;;4907798;29;20369;-80
2023/01/17 13:29:08;;;;;;;2.60;0.40;;;8.70;73.10;;;;;;4891026;29;20063;-79
2023/01/17 13:32:01;;;;;;;3.67;0.60;;;8.30;75.70;;;;;;4910222;29;20046;-80
2023/01/17 13:35:34;;;;;;;2.13;0.40;;;8.20;76.10;;;;;;4911208;29;20209;-79
2023/01/17 13:38:16;;;;;;;2.47;0.50;;;8.10;78.60;;;;;;4909891;29;20271;-79
2023/01/17 13:40:48;;;;;;;1.85;0.38;;;8.10;77.60;;;;;;4909922;29;20044;-80
2023/01/17 13:43:25;;;;;;;3.58;0.47;;;7.90;78.00;;;;;;4909599;29;20221;-78
2023/01/17 13:45:53;;;;;;;3.10;0.68;;;7.80;77.40;;;;;;4909005;29;20318;-78
2023/01/17 13:48:22;;;;;;;1.48;0.30;;;7.70;80.70;;;;;;4910233;29;20032;-78
2023/01/17 13:50:49;;;;;;;2.40;0.60;;;7.70;81.90;;;;;;4909826;29;20039;-79
2023/01/17 13:53:45;;;;;;;3.13;0.50;;;7.70;77.60;;;;;;4910469;29;20040;-78
2023/01/17 13:56:17;;;;;;;4.82;0.80;;;7.90;79.80;;;;;;4899742;29;20107;-81
2023/01/17 13:58:50;;;;;;;1.63;0.35;;;7.80;76.30;;;;;;4924771;29;20032;-78
2023/01/17 14:01:51;;;;;;;3.95;0.90;;;7.80;75.80;;;;;;4928195;29;20099;-77
2023/01/17 14:04:17;;;;;;;2.90;0.75;;;7.60;76.20;;;;;;4914885;29;20230;-80
2023/01/17 14:07:23;;;;;;;2.28;0.80;;;7.50;75.70;;;;;;4892740;29;20040;-78
2023/01/17 14:09:52;;;;;;;2.05;0.80;;;7.30;76.50;;;;;;4909218;29;20036;-79
2023/01/17 14:12:38;;;;;;;3.13;1.23;;;7.20;76.10;;;;;;4917624;29;20040;-80
2023/01/17 14:15:25;;;;;;;2.53;1.00;;;7.30;77.80;;;;;;4919284;29;20106;-80
2023/01/17 14:17:59;;;;;;;2.78;1.00;;;7.10;76.90;;;;;;4908859;29;20035;-79
2023/01/17 14:20:26;;;;;;;2.58;0.90;;;7.00;77.20;;;;;;4909783;29;20028;-80
2023/01/17 14:22:58;;;;;;;4.10;0.80;;;6.90;78.00;;;;;;4908255;29;20032;-78
2023/01/17 14:25:28;;;;;;;1.65;0.40;;;6.80;77.80;;;;;;4908555;29;20055;-79
2023/01/17 14:27:59;;;;;;;1.52;0.55;;;6.70;78.30;;;;;;4908687;29;20037;-79
2023/01/17 14:30:27;;;;;;;2.72;0.45;;;6.60;78.20;;;;;;4910661;29;20075;-79
2023/01/17 14:33:04;;;;;;;1.90;0.45;;;6.50;80.10;;;;;;4926746;29;20310;-79
2023/01/17 14:35:39;;;;;;;3.43;0.70;;;6.60;79.90;;;;;;4927007;29;20039;-80
2023/01/17 14:38:23;;;;;;;4.65;0.60;;;6.60;80.30;;;;;;4926989;29;20179;-79
2023/01/17 14:41:28;;;;;;;2.10;0.52;;;6.60;80.80;;;;;;4927431;29;20314;-81
2023/01/17 14:44:03;;;;;;;2.47;0.70;;;6.40;82.70;;;;;;4927073;29;20032;-79
2023/01/17 14:46:33;;;;;;;3.92;0.88;;;6.30;84.20;;;;;;4928500;29;20087;-79
2023/01/17 14:49:22;;;;;;;4.43;1.00;;;6.30;81.90;;;;;;4926632;29;20036;-81
2023/01/17 14:52:05;;;;;;;3.05;0.77;;;6.20;82.20;;;;;;4928217;29;20036;-81
2023/01/17 14:54:32;;;;;;;4.90;1.15;;;6.10;82.20;;;;;;4923258;29;20048;-80
2023/01/17 14:57:26;;;;;;;3.97;1.15;;;5.90;82.30;;;;;;4910512;29;20109;-81
2023/01/17 15:00:28;;;;;;;3.55;1.02;;;5.90;83.30;;;;;;4927542;29;20039;-80
2023/01/17 15:02:56;;;;;;;6.00;1.77;;;5.80;83.40;;;;;;4927631;29;20056;-79
2023/01/17 15:08:41;;;;;;;7.32;1.73;;;5.80;85.70;;;;;;4927889;29;20222;-79
2023/01/17 15:11:15;;;;;;;4.53;1.75;;;5.80;84.30;;;;;;4927712;29;20020;-78
2023/01/17 15:13:45;;;;;;;5.50;1.65;;;5.80;84.70;;;;;;4942734;29;20032;-78
2023/01/17 15:16:35;;;;;;;7.60;2.00;;;5.70;84.90;;;;;;4909307;29;20031;-81
2023/01/17 15:19:08;;;;;;;7.57;1.90;;;5.60;84.50;;;;;;4909066;29;20036;-79
2023/01/17 15:21:39;;;;;;;5.82;2.70;;;5.60;86.70;;;;;;4891896;29;20028;-79
2023/01/17 15:24:43;;;;;;;5.50;1.63;;;5.50;84.90;;;;;;4909144;29;20037;-78
2023/01/17 15:27:17;;;;;;;4.63;1.70;;;5.50;86.00;;;;;;4869819;29;20037;-78
2023/01/17 15:29:45;;;;;;;6.20;2.40;;;5.40;85.90;;;;;;4900644;29;20222;-78
2023/01/17 15:32:19;;;;;;;4.88;1.63;;;5.40;85.00;;;;;;4918121;29;20044;-78
2023/01/17 15:34:47;;;;;;;7.93;2.13;;;5.40;85.70;;;;;;4910097;29;20270;-78
2023/01/17 15:37:29;;;;;;;5.82;1.95;;;5.30;86.90;;;;;;4922509;29;20051;-78
2023/01/17 15:40:24;;;;;;;6.32;2.05;;;5.30;84.90;;;;;;4921842;29;20255;-78
2023/01/17 15:42:55;;;;;;;7.57;2.33;;;5.20;87.40;;;;;;4923422;29;20048;-77
2023/01/17 15:45:31;;;;;;;6.47;1.80;;;5.10;86.30;;;;;;4928690;29;20297;-78
2023/01/17 15:48:17;;;;;;;5.80;1.88;;;5.10;86.30;;;;;;4924157;29;20034;-79
2023/01/17 15:50:44;;;;;;;6.35;2.30;;;5.10;85.50;;;;;;4948260;28;20099;-80
2023/01/17 15:53:31;;;;;;;4.80;2.08;;;5.00;86.00;;;;;;4926649;29;20059;-77
2023/01/17 15:55:57;;;;;;;7.50;2.28;;;5.00;86.20;;;;;;4918106;29;20206;-77
2023/01/17 15:58:28;;;;;;;6.30;2.15;;;4.90;86.50;;;;;;4920039;29;20024;-78
2023/01/17 16:00:54;;;;;;;8.18;2.65;;;4.90;86.80;;;;;;4916435;29;20048;-78
2023/01/17 16:03:29;;;;;;;7.28;2.20;;;4.90;87.40;;;;;;4916929;29;20055;-78
2023/01/17 16:05:58;;;;;;;7.25;2.75;;;4.90;87.00;;;;;;4913979;29;20062;-76
2023/01/17 16:08:27;;;;;;;8.15;2.38;;;4.80;87.70;;;;;;4917572;29;20247;-78
2023/01/17 16:10:57;;;;;;;5.68;2.03;;;4.80;88.50;;;;;;4918477;29;20335;-79
2023/01/17 16:13:23;;;;;;;8.00;2.30;;;4.80;89.30;;;;;;4926671;29;20028;-78
2023/01/17 16:15:49;;;;;;;7.13;2.63;;;4.80;90.10;;;;;;4910829;29;20036;-79
2023/01/17 16:18:19;;;;;;;6.47;2.53;;;4.90;89.60;;;;;;4907001;29;20092;-79
2023/01/17 16:21:04;;;;;;;6.47;2.55;;;4.90;89.20;;;;;;4907653;29;20101;-78
2023/01/17 16:23:30;;;;;;;9.10;2.65;;;4.80;89.50;;;;;;4908220;29;20040;-75
2023/01/17 16:25:55;;;;;;;10.20;2.80;;;4.80;88.60;;;;;;4907659;29;20224;-76
2023/01/17 16:28:21;;;;;;;7.95;2.70;;;4.80;89.70;;;;;;4907156;29;20328;-76
2023/01/17 16:30:47;;;;;;;8.25;2.83;;;4.90;90.10;;;;;;4908799;29;20032;-77
2023/01/17 16:33:14;;;;;;;8.43;3.17;;;4.90;88.60;;;;;;4907461;29;20041;-76
2023/01/17 16:35:41;;;;;;;6.38;2.95;;;4.90;88.60;;;;;;4906844;29;20040;-76
2023/01/17 16:38:12;;;;;;;10.10;3.22;;;4.90;89.00;;;;;;4907240;29;20036;-77
2023/01/17 16:40:45;;;;;;;6.85;2.70;;;4.80;87.60;;;;;;4906695;29;20067;-77
2023/01/17 16:43:12;;;;;;;10.35;3.17;;;4.80;87.70;;;;;;4907207;29;20032;-76
2023/01/17 16:45:40;;;;;;;7.50;2.90;;;4.80;88.90;;;;;;4921434;29;20323;-76
2023/01/17 16:48:06;;;;;;;10.43;3.17;;;4.80;88.90;;;;;;4923357;29;20048;-75
2023/01/17 16:50:32;;;;;;;8.07;3.47;;;4.80;87.60;;;;;;4926272;29;20220;-76
2023/01/17 16:52:58;;;;;;;8.13;2.80;;;4.80;89.10;;;;;;4924417;29;20087;-76
2023/01/17 16:55:24;;;;;;;7.15;3.17;;;4.80;90.00;;;;;;4917693;29;20148;-77
2023/01/17 16:57:52;;;;;;;9.40;3.58;;;4.80;88.70;;;;;;4926399;29;20024;-76
2023/01/17 17:00:19;;;;;;;6.85;2.70;;;4.80;87.80;;;;;;4926358;29;20082;-74
2023/01/17 17:02:52;;;;;;;7.60;2.70;;;4.70;86.10;;;;;;4914294;29;20052;-76
2023/01/17 17:05:21;;;;;;;5.78;2.67;;;4.70;86.30;;;;;;4907214;29;20088;-77
2023/01/17 17:07:46;;;;;;;8.60;3.00;;;4.60;86.80;;;;;;4905501;29;20044;-78
2023/01/17 17:10:38;;;;;;;7.10;2.58;;;4.60;88.10;;;;;;4915624;29;20075;-77
2023/01/17 17:13:05;;;;;;;6.47;2.58;;;4.60;88.60;;;;;;4923770;29;20052;-78
2023/01/17 17:15:37;;;;;;;7.57;2.67;;;4.50;89.40;;;;;;4912764;29;20044;-77
2023/01/17 17:18:12;;;;;;;7.20;2.45;;;4.50;89.70;;;;;;4890905;29;20035;-78
2023/01/17 17:20:42;;;;;;;6.97;2.47;;;4.50;89.40;;;;;;4906861;29;20071;-78
2023/01/17 17:23:09;;;;;;;5.63;2.95;;;4.50;89.40;;;;;;4905987;29;20040;-80
2023/01/17 17:25:53;;;;;;;6.18;2.90;;;4.50;90.40;;;;;;4905266;29;20049;-79
2023/01/17 17:28:19;;;;;;;5.55;2.35;;;4.40;90.80;;;;;;4916769;29;20056;-78
2023/01/17 17:30:45;;;;;;;6.72;2.50;;;4.40;91.50;;;;;;4925159;29;20059;-77
2023/01/17 17:33:11;;;;;;;8.00;3.30;;;4.30;92.70;;;;;;4924970;29;20217;-79
2023/01/17 17:35:37;;;;;;;7.53;3.17;;;4.20;93.00;;;;;;4925185;29;20051;-80
2023/01/17 17:38:05;;;;;;;7.00;3.33;;;4.00;94.50;;;;;;4924821;29;20214;-79
2023/01/17 17:40:37;;;;;;;;;;;3.80;96.80;;;;;;4926724;29;20028;-78
2023/01/17 17:43:28;;;;;;;7.65;3.00;;;3.60;97.60;;;;;;4906279;29;20254;-77
2023/01/17 17:45:53;;;;;;;6.70;2.83;;;3.60;99.00;;;;;;4906055;29;20036;-80
2023/01/17 17:48:19;;;;;;;9.73;3.28;;;3.50;99.90;;;;;;4906716;29;20039;-75
2023/01/17 17:50:56;;;;;;;7.82;3.33;;;3.30;99.90;;;;;;4906304;29;20104;-77
2023/01/17 17:53:22;;;;;;;9.55;2.90;;;3.00;99.90;;;;;;4905832;29;20060;-77
2023/01/17 17:55:49;;;;;;;9.43;3.58;;;2.80;99.90;;;;;;4922445;29;20027;-76
2023/01/17 17:58:15;;;;;;;9.00;3.70;;;2.70;99.90;;;;;;4925664;29;20100;-77
2023/01/17 18:00:41;;;;;;;10.43;4.05;;;2.70;99.90;;;;;;4908350;29;20424;-76
2023/01/17 18:03:06;;;;;;;9.00;3.50;;;2.60;99.90;;;;;;4925550;29;20171;-77
2023/01/17 18:05:32;;;;;;;8.60;3.42;;;2.60;99.90;;;;;;4924498;29;20091;-78
2023/01/17 18:07:59;;;;;;;9.57;3.47;;;2.60;99.90;;;;;;4923641;29;20229;-78
2023/01/17 18:10:25;;;;;;;9.82;3.92;;;2.60;99.90;;;;;;4925486;29;20059;-78
2023/01/17 18:12:51;;;;;;;10.30;3.60;;;2.70;99.90;;;;;;4924989;29;20262;-79
2023/01/17 18:15:19;;;;;;;12.88;3.90;;;2.70;99.90;;;;;;4927836;29;20047;-78
2023/01/17 18:17:47;;;;;;;9.20;3.63;;;2.80;99.90;;;;;;4927362;29;20034;-78
2023/01/17 18:20:22;;;;;;;7.20;3.35;;;2.90;99.90;;;;;;4928802;29;20095;-81
2023/01/17 18:22:48;;;;;;;7.07;3.22;;;2.90;99.90;;;;;;4928400;29;20032;-77
2023/01/17 18:25:13;;;;;;;7.82;3.72;;;2.90;99.90;;;;;;4928425;29;20080;-76
2023/01/17 18:27:43;;;;;;;8.73;3.50;;;2.80;99.90;;;;;;4928466;29;20071;-76
2023/01/17 18:30:11;;;;;;;9.23;3.90;;;2.90;99.90;;;;;;4928925;29;20079;-75
2023/01/17 18:32:43;;;;;;;11.88;4.55;;;2.90;99.90;;;;;;4927557;29;20405;-76
2023/01/17 18:35:15;;;;;;;10.70;4.18;;;2.90;99.90;;;;;;4928693;29;20094;-77
2023/01/17 18:37:46;;;;;;;11.38;4.43;;;2.90;99.90;;;;;;4929724;29;20087;-76
2023/01/17 18:40:15;;;;;;;9.80;4.25;;;2.80;99.90;;;;;;4929956;29;20032;-81
2023/01/17 18:42:41;;;;;;;9.00;4.15;;;2.70;99.90;;;;;;4939583;29;20036;-76
2023/01/17 18:45:07;;;;;;;10.50;4.47;;;2.70;99.90;;;;;;4909538;29;20047;-77
2023/01/17 18:47:45;;;;;;;9.98;4.60;;;2.80;99.90;;;;;;4908707;29;20020;-79
2023/01/17 18:50:19;;;;;;;12.55;4.95;;;2.70;99.90;;;;;;4909634;29;20040;-77
2023/01/17 18:52:51;;;;;;;9.60;4.57;;;2.60;99.90;;;;;;4909236;29;20046;-81
2023/01/17 18:55:17;;;;;;;12.23;3.95;;;2.70;99.90;;;;;;4939917;29;20081;-79
2023/01/17 19:01:04;;;;;;;8.02;3.50;;;2.60;99.90;;;;;;4927781;29;20084;-79
2023/01/17 19:03:30;;;;;;;8.75;3.88;;;2.50;99.90;;;;;;4928334;29;20048;-80
2023/01/17 19:06:04;;;;;;;8.07;3.42;;;2.50;99.90;;;;;;4926848;29;20273;-80
2023/01/17 19:08:32;;;;;;;10.18;3.78;;;2.50;99.90;;;;;;4928362;29;20059;-81
2023/01/17 19:11:03;;;;;;;8.70;3.77;;;2.50;99.90;;;;;;4926207;29;20035;-79
2023/01/17 19:13:40;;;;;;;10.90;3.60;;;2.50;99.90;;;;;;4927263;29;20056;-79
2023/01/17 19:16:25;;;;;;;8.75;3.60;;;2.40;99.90;;;;;;4927796;29;20369;-80
2023/01/17 19:18:51;;;;;;;8.82;3.30;;;2.40;99.90;;;;;;4926694;29;20052;-76
2023/01/17 19:21:20;;;;;;;7.07;3.08;;;2.40;99.90;;;;;;4928676;29;20103;-77
2023/01/17 19:23:46;;;;;;;6.88;3.40;;;2.40;99.90;;;;;;4928009;29;20214;-78
2023/01/17 19:26:18;;;;;;;8.75;3.28;;;2.40;99.90;;;;;;4927917;29;20040;-77
2023/01/17 19:28:47;;;;;;;8.50;3.25;;;2.40;99.90;;;;;;4926771;29;20035;-76
2023/01/17 19:31:19;;;;;;;10.13;3.40;;;2.40;99.90;;;;;;4927963;29;20103;-76